Time;durP1;ratioP1;P1;durP2;ratioP2;P2;SDS_P1;SDS_P2;PMS_P1;PMS_P2;Temp;Humidity;BMP_temperature;BMP_pressure;BME280_temperature;BME280_humidity;BME280_pressure;Samples;Min_cycle;Max_cycle;Signal;HPM_P1;HPM_P2
2021/03/27 00:01:04;;;;;;;17.10;9.75;;;11.40;99.90;;;;;;5045724;28;20021;-54
2021/03/27 00:03:49;;;;;;;15.45;9.68;;;11.40;99.90;;;;;;5046383;28;20025;-53
2021/03/27 00:06:35;;;;;;;15.70;10.02;;;11.40;99.90;;;;;;5044773;28;20070;-53
2021/03/27 00:09:13;;;;;;;14.63;10.35;;;11.30;99.90;;;;;;5045606;28;20036;-53
2021/03/27 00:11:46;;;;;;;18.52;12.45;;;11.40;99.90;;;;;;5045793;28;20020;-52
2021/03/27 00:14:17;;;;;;;19.90;12.47;;;11.30;99.90;;;;;;5044747;28;20060;-53
2021/03/27 00:16:50;;;;;;;16.98;11.07;;;11.30;99.90;;;;;;5043441;28;20033;-53
2021/03/27 00:19:28;;;;;;;16.17;11.52;;;11.30;99.90;;;;;;5044708;28;20503;-53
2021/03/27 00:22:00;;;;;;;13.77;10.13;;;11.20;99.90;;;;;;5045096;28;20634;-52
2021/03/27 00:24:31;;;;;;;15.25;11.63;;;11.30;99.90;;;;;;5045555;28;20082;-53
2021/03/27 00:27:07;;;;;;;16.00;10.38;;;11.20;99.90;;;;;;5045149;28;20051;-52
2021/03/27 00:29:42;;;;;;;16.70;11.57;;;11.30;99.90;;;;;;5045066;28;20049;-51
2021/03/27 00:32:16;;;;;;;19.15;11.38;;;11.20;99.90;;;;;;5049338;28;20029;-52
2021/03/27 00:34:48;;;;;;;16.77;10.52;;;11.30;99.90;;;;;;5048276;28;20029;-54
2021/03/27 00:37:17;;;;;;;13.20;10.07;;;11.40;99.90;;;;;;5050989;28;20651;-54
2021/03/27 00:40:13;;;;;;;14.90;10.48;;;11.50;99.90;;;;;;5066428;28;20032;-55
2021/03/27 00:42:48;;;;;;;12.45;9.60;;;11.50;99.90;;;;;;5064462;28;20545;-55
2021/03/27 00:45:20;;;;;;;12.65;9.68;;;11.40;99.90;;;;;;5065172;28;20382;-55
2021/03/27 00:47:51;;;;;;;15.00;9.93;;;11.40;99.90;;;;;;5065237;28;20505;-55
2021/03/27 00:50:39;;;;;;;12.63;10.02;;;11.40;99.90;;;;;;5064174;28;20028;-55
2021/03/27 00:53:21;;;;;;;13.82;9.45;;;11.30;99.90;;;;;;5065097;28;20017;-55
2021/03/27 00:56:01;;;;;;;13.50;8.27;;;11.30;99.90;;;;;;5065081;28;20069;-55
2021/03/27 00:58:37;;;;;;;14.43;9.65;;;11.30;99.90;;;;;;5065595;28;20040;-54
2021/03/27 01:01:06;;;;;;;13.40;9.90;;;11.30;99.90;;;;;;5064856;28;20025;-53
2021/03/27 01:03:50;;;;;;;11.20;8.45;;;11.20;99.90;;;;;;5064865;28;20457;-54
2021/03/27 01:06:21;;;;;;;11.45;8.20;;;11.30;99.90;;;;;;5064676;28;20025;-54
2021/03/27 01:08:50;;;;;;;11.98;8.23;;;11.30;99.90;;;;;;5064850;28;20127;-54
2021/03/27 01:11:31;;;;;;;9.85;7.43;;;11.20;99.90;;;;;;5064457;28;20021;-55
2021/03/27 01:14:00;;;;;;;9.43;7.05;;;11.20;99.90;;;;;;5065476;28;20020;-54
2021/03/27 01:16:32;;;;;;;10.95;8.40;;;11.30;99.90;;;;;;5065528;28;20085;-54
2021/03/27 01:19:39;;;;;;;13.30;7.68;;;11.20;99.90;;;;;;5064917;28;20150;-55
2021/03/27 01:22:08;;;;;;;11.63;8.25;;;11.20;99.90;;;;;;5064698;28;20021;-54
2021/03/27 01:24:34;;;;;;;11.05;8.20;;;11.30;99.90;;;;;;5064254;28;20032;-55
2021/03/27 01:27:01;;;;;;;10.25;8.15;;;11.20;99.90;;;;;;5065023;28;20037;-53
2021/03/27 01:29:48;;;;;;;10.98;8.27;;;11.30;99.90;;;;;;5065400;28;20562;-54
2021/03/27 01:32:14;;;;;;;11.50;7.43;;;11.30;99.90;;;;;;5064241;28;20122;-54
2021/03/27 01:34:51;;;;;;;12.07;8.20;;;11.30;99.90;;;;;;5064842;28;20052;-54
2021/03/27 01:37:23;;;;;;;8.23;6.53;;;11.30;99.90;;;;;;5065028;28;20406;-54
2021/03/27 01:39:56;;;;;;;9.93;6.57;;;11.30;99.90;;;;;;5064602;28;20036;-54
2021/03/27 01:42:55;;;;;;;9.20;6.78;;;11.30;99.90;;;;;;5064654;28;20032;-53
2021/03/27 01:45:42;;;;;;;7.35;6.00;;;11.20;99.90;;;;;;5064331;28;20039;-53
2021/03/27 01:48:37;;;;;;;7.88;5.88;;;11.30;99.90;;;;;;5062758;28;20509;-55
2021/03/27 01:51:28;;;;;;;8.85;6.93;;;11.30;99.90;;;;;;5063302;28;20041;-55
2021/03/27 01:53:57;;;;;;;12.23;9.35;;;11.30;99.90;;;;;;5063751;28;20115;-53
2021/03/27 01:56:52;;;;;;;10.65;7.57;;;11.20;99.90;;;;;;5064816;28;20029;-54
2021/03/27 01:59:26;;;;;;;;;;;11.20;99.90;;;;;;5064592;28;20067;-54
2021/03/27 02:01:55;;;;;;;11.07;6.78;;;11.20;99.90;;;;;;5064505;28;19909;-54
2021/03/27 02:04:27;;;;;;;11.93;8.65;;;11.30;99.90;;;;;;5064397;28;20041;-54
2021/03/27 02:07:06;;;;;;;11.60;7.55;;;11.30;99.90;;;;;;5063917;28;20028;-54
2021/03/27 02:09:59;;;;;;;10.50;6.90;;;11.30;99.90;;;;;;5064226;28;20034;-54
2021/03/27 02:13:03;;;;;;;8.68;6.70;;;11.30;99.90;;;;;;5064266;28;20554;-54
2021/03/27 02:15:50;;;;;;;10.20;6.72;;;11.30;99.90;;;;;;5064709;28;20024;-53
2021/03/27 02:18:35;;;;;;;9.73;7.38;;;11.30;99.90;;;;;;5063898;28;20024;-54
2021/03/27 02:21:24;;;;;;;10.45;7.45;;;11.30;99.90;;;;;;5064303;28;20052;-54
2021/03/27 02:24:09;;;;;;;8.45;5.95;;;11.30;99.90;;;;;;5064006;28;20021;-54
2021/03/27 02:27:09;;;;;;;7.75;5.40;;;11.30;99.90;;;;;;5064173;28;20036;-53
2021/03/27 02:29:38;;;;;;;7.95;5.18;;;11.30;99.90;;;;;;5063262;28;20050;-53
2021/03/27 02:32:10;;;;;;;5.97;4.20;;;11.30;99.90;;;;;;5062460;28;20104;-54
2021/03/27 02:34:45;;;;;;;6.88;5.05;;;11.30;99.90;;;;;;5063779;28;20359;-54
2021/03/27 02:37:27;;;;;;;6.28;5.05;;;11.40;99.90;;;;;;5066597;28;20486;-52
2021/03/27 02:40:27;;;;;;;5.70;4.43;;;11.30;99.90;;;;;;5067736;28;20025;-53
2021/03/27 02:43:11;;;;;;;4.28;3.00;;;11.40;99.90;;;;;;5067263;28;20060;-53
2021/03/27 02:46:22;;;;;;;4.28;3.15;;;11.30;99.90;;;;;;5067752;28;20100;-54
2021/03/27 02:49:23;;;;;;;5.15;3.63;;;11.30;99.90;;;;;;5067359;28;20028;-53
2021/03/27 02:52:18;;;;;;;5.18;3.35;;;11.30;99.90;;;;;;5066617;28;20052;-54
2021/03/27 02:55:11;;;;;;;4.05;3.30;;;11.30;99.90;;;;;;5067007;28;20498;-54
2021/03/27 02:57:54;;;;;;;3.72;2.65;;;11.30;99.90;;;;;;5064417;28;20036;-53
2021/03/27 03:00:34;;;;;;;4.05;2.72;;;11.40;99.90;;;;;;5063481;28;20020;-53
2021/03/27 03:03:18;;;;;;;5.78;4.30;;;11.40;99.90;;;;;;5058033;28;20035;-53
2021/03/27 03:05:54;;;;;;;7.03;5.22;;;11.30;99.90;;;;;;5047559;28;20031;-53
2021/03/27 03:08:24;;;;;;;3.28;2.58;;;10.90;99.90;;;;;;5046283;28;20029;-54
2021/03/27 03:11:00;;;;;;;3.67;2.00;;;10.50;99.90;;;;;;5046812;28;20021;-54
2021/03/27 03:13:37;;;;;;;2.78;1.52;;;10.20;99.90;;;;;;5046439;28;20078;-53
2021/03/27 03:16:27;;;;;;;1.55;1.00;;;10.10;99.90;;;;;;5046308;28;20047;-53
2021/03/27 03:18:58;;;;;;;4.30;1.38;;;10.10;99.90;;;;;;5045943;28;20021;-54
2021/03/27 03:21:51;;;;;;;2.42;1.00;;;9.90;99.90;;;;;;5045235;28;20025;-53
2021/03/27 03:24:22;;;;;;;2.40;1.00;;;9.90;99.90;;;;;;5046224;28;20138;-55
2021/03/27 03:27:08;;;;;;;5.88;1.20;;;9.80;99.90;;;;;;5047024;28;20036;-54
2021/03/27 03:29:55;;;;;;;4.70;1.10;;;9.60;99.90;;;;;;5046717;28;20025;-56
2021/03/27 03:32:20;;;;;;;4.70;1.10;;;9.40;99.90;;;;;;5046311;28;20033;-55
2021/03/27 03:35:07;;;;;;;4.13;0.98;;;9.30;99.90;;;;;;5046660;28;20147;-54
2021/03/27 03:37:44;;;;;;;2.92;0.95;;;9.30;99.90;;;;;;5046300;28;20047;-54
2021/03/27 03:40:13;;;;;;;3.47;0.98;;;9.10;99.90;;;;;;5046079;28;20017;-55
2021/03/27 03:42:56;;;;;;;3.78;0.90;;;9.20;99.90;;;;;;5046568;28;20068;-55
2021/03/27 03:45:25;;;;;;;2.22;0.80;;;9.10;99.90;;;;;;5046576;28;20114;-55
2021/03/27 03:47:56;;;;;;;2.05;0.60;;;9.20;99.90;;;;;;5045520;28;20028;-55
2021/03/27 03:50:48;;;;;;;4.30;0.82;;;9.20;99.90;;;;;;5045809;28;20124;-54
2021/03/27 03:53:35;;;;;;;2.85;0.70;;;9.20;99.90;;;;;;5046110;28;20044;-53
2021/03/27 03:56:20;;;;;;;4.18;0.77;;;9.20;99.90;;;;;;5046149;28;20059;-54
2021/03/27 03:58:54;;;;;;;4.40;0.90;;;9.20;99.90;;;;;;5045685;28;20529;-56
2021/03/27 04:01:23;;;;;;;3.35;0.73;;;9.00;99.90;;;;;;5046078;28;20025;-52
2021/03/27 04:04:10;;;;;;;3.70;1.00;;;9.10;99.90;;;;;;5045989;28;20040;-56
2021/03/27 04:06:39;;;;;;;3.63;1.20;;;9.10;99.90;;;;;;5046020;28;20087;-54
2021/03/27 04:09:11;;;;;;;1.48;0.60;;;9.40;99.90;;;;;;5045683;28;20083;-55
2021/03/27 04:11:58;;;;;;;1.85;0.40;;;9.50;99.90;;;;;;5045981;28;20051;-55
2021/03/27 04:14:39;;;;;;;2.28;0.70;;;9.60;99.90;;;;;;5045506;28;20206;-56
2021/03/27 04:17:21;;;;;;;1.48;0.68;;;9.90;99.90;;;;;;5045338;28;20025;-55
2021/03/27 04:19:51;;;;;;;2.15;0.68;;;10.00;99.90;;;;;;5046509;28;20021;-54
2021/03/27 04:22:17;;;;;;;1.17;0.93;;;10.00;99.90;;;;;;5046306;28;20082;-54
2021/03/27 04:24:57;;;;;;;3.13;0.88;;;10.00;99.90;;;;;;5046426;28;20021;-59
2021/03/27 04:27:31;;;;;;;0.93;0.60;;;9.90;99.90;;;;;;5045570;28;20107;-59
2021/03/27 04:29:59;;;;;;;1.50;0.60;;;9.80;99.90;;;;;;5045421;28;20392;-59
2021/03/27 04:32:28;;;;;;;1.45;0.50;;;9.60;99.90;;;;;;5045533;28;20021;-59
2021/03/27 04:35:16;;;;;;;2.90;0.70;;;9.70;99.90;;;;;;5045416;28;20092;-59
2021/03/27 04:38:03;;;;;;;2.40;1.00;;;9.70;99.90;;;;;;5045404;28;20403;-59
2021/03/27 04:40:36;;;;;;;2.05;0.65;;;10.00;99.90;;;;;;5045549;28;20459;-59
2021/03/27 04:43:23;;;;;;;2.75;0.60;;;10.20;99.90;;;;;;5045304;28;20507;-59
2021/03/27 04:45:54;;;;;;;1.88;0.70;;;10.30;99.90;;;;;;5045364;28;20029;-59
2021/03/27 04:48:41;;;;;;;1.98;0.57;;;10.40;99.90;;;;;;5045075;28;20100;-59
2021/03/27 04:51:37;;;;;;;1.90;0.68;;;10.40;99.90;;;;;;5044133;28;20021;-59
2021/03/27 04:54:27;;;;;;;1.85;0.63;;;10.40;99.90;;;;;;5044693;28;20399;-59
2021/03/27 04:57:00;;;;;;;1.77;0.68;;;10.30;99.90;;;;;;5059386;28;20036;-59
2021/03/27 04:59:43;;;;;;;2.08;0.70;;;10.30;99.90;;;;;;5063272;28;20434;-59
2021/03/27 05:02:16;;;;;;;1.38;0.60;;;10.10;99.90;;;;;;5063046;28;20033;-59
2021/03/27 05:04:54;;;;;;;1.85;0.77;;;9.90;99.90;;;;;;5064671;28;20561;-59
2021/03/27 05:07:29;;;;;;;2.35;0.80;;;9.80;99.90;;;;;;5064585;28;20278;-59
2021/03/27 05:10:07;;;;;;;1.73;0.50;;;9.60;99.90;;;;;;5064699;28;20111;-59
2021/03/27 05:12:59;;;;;;;1.85;0.40;;;9.70;99.90;;;;;;5064032;28;20025;-59
2021/03/27 05:15:28;;;;;;;2.30;0.73;;;9.80;99.90;;;;;;5063450;28;20487;-59
2021/03/27 05:18:07;;;;;;;1.70;0.85;;;9.90;99.90;;;;;;5064160;28;20043;-59
2021/03/27 05:20:39;;;;;;;1.17;0.43;;;9.90;99.90;;;;;;5064784;28;20400;-59
2021/03/27 05:23:38;;;;;;;1.65;0.70;;;9.90;99.90;;;;;;5064565;28;20020;-59
2021/03/27 05:26:41;;;;;;;3.13;0.85;;;9.90;99.90;;;;;;5064377;28;20036;-58
2021/03/27 05:29:07;;;;;;;0.90;0.50;;;9.80;99.90;;;;;;5064396;28;20457;-58
2021/03/27 05:31:50;;;;;;;2.55;0.68;;;9.90;99.90;;;;;;5063763;28;20031;-59
2021/03/27 05:34:25;;;;;;;1.45;0.57;;;9.80;99.90;;;;;;5063949;28;20032;-59
2021/03/27 05:37:00;;;;;;;2.63;0.63;;;9.80;99.90;;;;;;5064920;28;20958;-59
2021/03/27 05:39:58;;;;;;;1.70;0.63;;;9.70;99.90;;;;;;5064542;28;20086;-59
2021/03/27 05:43:01;;;;;;;0.82;0.50;;;9.80;99.90;;;;;;5063189;28;20052;-59
2021/03/27 05:45:49;;;;;;;0.57;0.40;;;9.70;99.90;;;;;;5065057;28;20036;-59
2021/03/27 05:48:50;;;;;;;0.60;0.30;;;9.70;99.90;;;;;;5064171;28;20032;-58
2021/03/27 05:51:38;;;;;;;1.33;0.50;;;9.70;99.90;;;;;;5064015;28;20525;-59
2021/03/27 05:54:32;;;;;;;2.45;0.70;;;9.60;99.90;;;;;;5064130;28;20498;-59
2021/03/27 05:57:34;;;;;;;2.15;0.60;;;9.40;99.90;;;;;;5063689;28;20098;-59
2021/03/27 06:00:36;;;;;;;2.55;0.65;;;9.30;99.90;;;;;;5064615;28;20082;-59
2021/03/27 06:03:30;;;;;;;1.00;0.50;;;9.40;99.90;;;;;;5064405;28;20063;-59
2021/03/27 06:06:26;;;;;;;2.03;0.75;;;9.40;99.90;;;;;;5064131;28;20545;-58
2021/03/27 06:09:25;;;;;;;3.00;0.77;;;9.40;99.90;;;;;;5063994;28;20029;-59
2021/03/27 06:11:56;;;;;;;2.22;0.68;;;9.60;99.90;;;;;;5066558;28;20029;-58
2021/03/27 06:14:52;;;;;;;3.28;0.65;;;9.50;99.90;;;;;;5067830;28;20024;-58
2021/03/27 06:17:46;;;;;;;2.15;0.70;;;9.50;99.90;;;;;;5067829;28;20033;-58
2021/03/27 06:20:30;;;;;;;4.75;0.65;;;9.30;99.90;;;;;;5067978;28;20031;-58
2021/03/27 06:23:33;;;;;;;2.75;0.80;;;9.30;99.90;;;;;;5066843;28;20039;-58
2021/03/27 06:26:23;;;;;;;2.10;0.70;;;9.20;99.90;;;;;;5060337;28;20619;-58
2021/03/27 06:28:56;;;;;;;1.40;0.65;;;9.10;99.90;;;;;;5068684;28;20282;-58
2021/03/27 06:31:27;;;;;;;1.48;0.60;;;9.20;99.90;;;;;;5061149;28;20398;-58
2021/03/27 06:34:02;;;;;;;5.28;1.90;;;9.20;99.90;;;;;;5061317;28;20581;-58
2021/03/27 06:36:52;;;;;;;2.38;1.70;;;9.20;99.90;;;;;;5048445;28;20507;-58
2021/03/27 06:39:27;;;;;;;4.85;2.13;;;9.20;99.90;;;;;;5060563;28;20033;-58
2021/03/27 06:42:18;;;;;;;3.85;1.98;;;9.20;99.90;;;;;;5063325;28;20547;-58
2021/03/27 06:45:03;;;;;;;2.45;1.50;;;9.20;99.90;;;;;;5047810;28;20450;-58
2021/03/27 06:47:44;;;;;;;2.13;1.15;;;9.30;99.90;;;;;;5049508;28;20029;-58
2021/03/27 06:50:29;;;;;;;2.28;1.27;;;9.20;99.90;;;;;;5048386;28;20047;-58
2021/03/27 06:53:09;;;;;;;3.03;0.98;;;9.20;99.90;;;;;;5048630;28;20025;-58
2021/03/27 06:56:10;;;;;;;2.25;0.75;;;9.20;99.90;;;;;;5057334;28;20028;-58
2021/03/27 06:58:55;;;;;;;3.40;1.08;;;9.10;99.90;;;;;;5048327;28;20060;-58
2021/03/27 07:01:58;;;;;;;3.22;1.50;;;9.30;99.90;;;;;;5051048;28;20029;-58
2021/03/27 07:04:50;;;;;;;5.43;2.58;;;9.20;99.90;;;;;;5048257;28;20099;-58
2021/03/27 07:07:37;;;;;;;5.35;1.60;;;9.20;99.90;;;;;;5051582;28;20440;-58
2021/03/27 07:10:34;;;;;;;3.67;1.23;;;9.10;99.90;;;;;;5050537;28;20033;-58
2021/03/27 07:13:15;;;;;;;2.78;1.00;;;8.90;99.90;;;;;;5058886;28;20044;-58
2021/03/27 07:16:14;;;;;;;3.33;0.98;;;9.10;99.90;;;;;;5061561;28;20035;-58
2021/03/27 07:19:02;;;;;;;4.32;0.90;;;9.30;99.90;;;;;;5068571;28;20023;-58
2021/03/27 07:21:46;;;;;;;1.60;0.65;;;9.40;99.90;;;;;;5057992;28;20037;-58
2021/03/27 07:24:40;;;;;;;2.80;0.70;;;9.50;99.90;;;;;;5051707;28;20079;-58
2021/03/27 07:27:43;;;;;;;2.63;0.70;;;9.60;99.90;;;;;;5055951;28;20310;-58
2021/03/27 07:30:23;;;;;;;1.27;0.60;;;9.90;99.90;;;;;;5052960;28;20029;-57
2021/03/27 07:33:04;;;;;;;1.40;0.70;;;9.80;99.90;;;;;;5057047;28;20025;-57
2021/03/27 07:36:03;;;;;;;1.35;0.55;;;9.90;99.90;;;;;;5051022;28;20029;-57
2021/03/27 07:38:44;;;;;;;3.65;0.95;;;9.90;99.90;;;;;;5065165;28;20027;-57
2021/03/27 07:41:48;;;;;;;2.03;0.70;;;9.90;99.90;;;;;;5065593;28;20430;-57
2021/03/27 07:44:37;;;;;;;1.60;0.77;;;9.90;99.90;;;;;;5047569;28;20038;-57
2021/03/27 07:47:38;;;;;;;2.58;1.05;;;9.80;99.90;;;;;;5047198;28;20094;-57
2021/03/27 07:50:23;;;;;;;4.28;0.90;;;9.80;99.90;;;;;;5061150;28;20107;-56
2021/03/27 07:53:13;;;;;;;2.13;0.70;;;9.70;99.90;;;;;;5066454;28;20028;-59
2021/03/27 07:55:44;;;;;;;1.80;0.60;;;9.80;99.90;;;;;;5056621;28;20029;-56
2021/03/27 07:58:33;;;;;;;2.53;0.80;;;10.00;99.90;;;;;;5052678;28;20021;-56
2021/03/27 08:01:37;;;;;;;2.72;0.60;;;10.00;99.90;;;;;;5061350;28;20028;-57
2021/03/27 08:04:18;;;;;;;1.45;0.50;;;10.10;99.90;;;;;;5066208;28;20054;-57
2021/03/27 08:07:02;;;;;;;1.85;0.75;;;10.00;99.90;;;;;;5058110;28;20578;-57
2021/03/27 08:09:37;;;;;;;3.22;0.70;;;10.10;99.90;;;;;;5048635;28;20039;-56
2021/03/27 08:12:30;;;;;;;2.97;0.63;;;10.10;99.90;;;;;;5045321;28;20044;-56
2021/03/27 08:15:24;;;;;;;1.38;0.60;;;10.10;99.90;;;;;;5046876;28;20033;-56
2021/03/27 08:18:19;;;;;;;2.17;0.60;;;10.10;99.90;;;;;;5054926;28;20154;-56
2021/03/27 08:20:54;;;;;;;3.20;0.90;;;10.00;99.90;;;;;;5055059;28;20021;-56
2021/03/27 08:23:24;;;;;;;1.73;0.50;;;9.80;99.90;;;;;;5047294;28;20017;-56
2021/03/27 08:26:23;;;;;;;1.63;0.60;;;10.00;99.90;;;;;;5050660;28;20035;-57
2021/03/27 08:28:54;;;;;;;2.80;0.80;;;10.20;99.90;;;;;;5048002;28;20037;-56
2021/03/27 08:31:44;;;;;;;1.17;0.63;;;10.30;99.90;;;;;;5057080;28;20032;-58
2021/03/27 08:34:31;;;;;;;0.90;0.65;;;10.30;99.90;;;;;;5063750;28;20029;-56
2021/03/27 08:37:05;;;;;;;1.75;0.60;;;10.30;99.90;;;;;;5047646;28;20040;-56
2021/03/27 08:39:50;;;;;;;1.73;0.80;;;10.50;99.90;;;;;;5047458;28;20037;-56
2021/03/27 08:42:27;;;;;;;0.98;0.80;;;10.50;99.90;;;;;;5048752;28;20116;-55
2021/03/27 08:45:00;;;;;;;1.67;0.85;;;10.40;99.90;;;;;;5050775;28;20056;-56
2021/03/27 08:47:44;;;;;;;2.42;0.65;;;10.10;99.90;;;;;;5066114;28;20047;-56
2021/03/27 08:50:47;;;;;;;2.90;0.60;;;10.30;99.90;;;;;;5046252;28;20031;-56
2021/03/27 08:53:45;;;;;;;3.35;1.08;;;10.40;99.90;;;;;;5047417;28;20023;-56
2021/03/27 08:57:01;;;;;;;2.45;0.65;;;10.30;99.90;;;;;;5066004;28;20070;-56
2021/03/27 08:59:48;;;;;;;3.50;0.68;;;10.30;99.90;;;;;;5053255;28;20024;-56
2021/03/27 09:02:16;;;;;;;3.38;0.90;;;10.20;99.90;;;;;;5045299;28;20072;-56
2021/03/27 09:05:10;;;;;;;2.08;0.75;;;10.10;99.90;;;;;;5046486;28;20032;-56
2021/03/27 09:07:57;;;;;;;2.17;0.60;;;10.10;99.90;;;;;;5045676;28;20029;-56
2021/03/27 09:10:32;;;;;;;3.55;0.60;;;10.40;99.90;;;;;;5046640;28;20044;-56
2021/03/27 09:13:13;;;;;;;1.35;0.52;;;10.50;99.90;;;;;;5046671;28;20052;-56
2021/03/27 09:16:14;;;;;;;1.50;0.50;;;10.70;99.90;;;;;;5050371;28;20090;-56
2021/03/27 09:18:58;;;;;;;1.17;0.63;;;10.80;99.90;;;;;;5046801;28;20543;-56
2021/03/27 09:21:44;;;;;;;1.40;0.77;;;11.00;99.90;;;;;;5046653;28;20414;-56
2021/03/27 09:24:47;;;;;;;2.50;0.80;;;10.90;99.90;;;;;;5045684;28;20037;-55
2021/03/27 09:27:46;;;;;;;2.10;0.50;;;11.00;99.90;;;;;;5061251;28;20064;-55
2021/03/27 09:30:25;;;;;;;1.60;0.45;;;11.20;99.90;;;;;;5059445;28;20025;-55
2021/03/27 09:33:15;;;;;;;1.58;0.80;;;11.30;99.90;;;;;;5063134;28;20101;-57
2021/03/27 09:36:14;;;;;;;1.67;1.05;;;11.30;99.90;;;;;;5045949;28;20021;-57
2021/03/27 09:38:55;;;;;;;0.70;0.60;;;11.20;99.90;;;;;;5045585;28;20036;-57
2021/03/27 09:41:41;;;;;;;1.55;0.63;;;11.10;99.90;;;;;;5045664;28;20102;-58
2021/03/27 09:44:31;;;;;;;1.88;0.80;;;11.00;99.90;;;;;;5045351;28;20118;-58
2021/03/27 09:47:06;;;;;;;1.92;0.73;;;11.00;99.90;;;;;;5051609;28;20035;-58
2021/03/27 09:49:50;;;;;;;2.15;0.50;;;11.20;99.90;;;;;;5053057;28;20036;-58
2021/03/27 09:52:35;;;;;;;1.40;0.70;;;11.00;99.90;;;;;;5049923;28;20025;-58
2021/03/27 09:55:25;;;;;;;2.17;0.80;;;11.20;99.90;;;;;;5060402;28;20739;-58
2021/03/27 09:58:10;;;;;;;2.20;0.98;;;11.20;99.90;;;;;;5069738;28;20477;-57
2021/03/27 10:00:47;;;;;;;1.52;0.60;;;10.90;99.90;;;;;;5052245;28;20245;-58
2021/03/27 10:03:31;;;;;;;1.33;0.60;;;10.80;99.90;;;;;;5047239;28;20025;-58
2021/03/27 10:06:06;;;;;;;2.17;1.00;;;10.70;99.90;;;;;;5048476;28;20052;-57
2021/03/27 10:08:44;;;;;;;0.60;0.45;;;11.00;99.90;;;;;;5048399;28;20578;-58
2021/03/27 10:11:16;;;;;;;3.58;0.80;;;11.30;99.90;;;;;;5047452;28;20021;-57
2021/03/27 10:13:58;;;;;;;1.60;0.68;;;11.10;99.90;;;;;;5048089;28;20067;-58
2021/03/27 10:16:42;;;;;;;2.50;0.98;;;11.10;99.90;;;;;;5048180;28;20052;-58
2021/03/27 10:19:17;;;;;;;1.67;0.93;;;10.90;99.90;;;;;;5048036;28;20044;-58
2021/03/27 10:22:16;;;;;;;2.55;1.50;;;11.00;99.90;;;;;;5047991;28;20410;-57
2021/03/27 10:24:55;;;;;;;3.75;1.75;;;11.10;99.90;;;;;;5047834;28;20439;-59
2021/03/27 10:27:43;;;;;;;3.78;1.90;;;11.30;99.90;;;;;;5047489;28;20032;-57
2021/03/27 10:30:29;;;;;;;3.13;1.40;;;11.30;99.90;;;;;;5047879;28;20036;-57
2021/03/27 10:33:22;;;;;;;1.65;0.80;;;11.30;99.90;;;;;;5047875;28;20021;-57
2021/03/27 10:35:47;;;;;;;1.40;0.70;;;11.50;99.90;;;;;;5047768;28;20028;-57
2021/03/27 10:38:56;;;;;;;1.60;0.70;;;11.60;99.90;;;;;;5047814;28;20028;-57
2021/03/27 10:41:32;;;;;;;1.42;0.68;;;11.80;99.90;;;;;;5047680;28;20396;-57
2021/03/27 10:44:12;;;;;;;1.20;0.65;;;11.60;99.90;;;;;;5047785;28;20029;-57
2021/03/27 10:46:50;;;;;;;1.70;0.55;;;11.70;99.90;;;;;;5047358;28;20120;-57
2021/03/27 10:49:24;;;;;;;1.38;0.57;;;11.80;99.80;;;;;;5047318;28;20029;-56
2021/03/27 10:51:59;;;;;;;2.30;0.65;;;11.80;99.90;;;;;;5046903;28;20055;-59
2021/03/27 10:54:56;;;;;;;3.70;1.10;;;11.80;99.90;;;;;;5047038;28;20047;-57
2021/03/27 10:57:30;;;;;;;3.90;1.35;;;11.90;99.90;;;;;;5045891;28;20039;-57
2021/03/27 11:00:16;;;;;;;;;;;12.10;99.90;;;;;;5047834;28;20033;-57
2021/03/27 11:02:49;;;;;;;3.30;0.95;;;12.20;98.50;;;;;;5055528;28;19916;-57
2021/03/27 11:05:18;;;;;;;4.95;1.40;;;12.30;99.10;;;;;;5047241;28;20025;-57
2021/03/27 11:08:02;;;;;;;1.70;0.82;;;12.30;97.70;;;;;;5054145;28;20133;-56
2021/03/27 11:10:40;;;;;;;1.30;0.77;;;12.50;98.90;;;;;;5050526;28;20341;-57
2021/03/27 11:13:30;;;;;;;1.52;0.73;;;12.70;98.00;;;;;;5048327;28;20036;-57
2021/03/27 11:16:31;;;;;;;1.05;0.70;;;12.80;99.50;;;;;;5056398;28;20028;-56
2021/03/27 11:19:12;;;;;;;6.47;2.00;;;13.00;98.60;;;;;;5054020;28;20109;-56
2021/03/27 11:22:10;;;;;;;8.30;3.35;;;12.60;97.40;;;;;;5048403;28;20040;-58
2021/03/27 11:24:54;;;;;;;5.30;2.22;;;12.50;99.40;;;;;;5051253;28;20020;-59
2021/03/27 11:27:50;;;;;;;5.10;2.20;;;12.80;97.70;;;;;;5057718;28;20031;-55
2021/03/27 11:30:38;;;;;;;4.18;1.75;;;12.90;97.60;;;;;;5046868;28;20017;-58
2021/03/27 11:33:25;;;;;;;5.90;2.08;;;13.00;97.20;;;;;;5053546;28;20503;-56
2021/03/27 11:36:14;;;;;;;4.05;1.48;;;12.80;96.70;;;;;;5054593;28;20036;-56
2021/03/27 11:38:45;;;;;;;4.25;1.55;;;12.60;96.00;;;;;;5060551;28;20043;-56
2021/03/27 11:41:27;;;;;;;3.85;1.45;;;12.90;96.50;;;;;;5055124;28;20096;-56
2021/03/27 11:44:17;;;;;;;5.55;2.05;;;13.20;95.10;;;;;;5051534;28;20144;-56
2021/03/27 11:47:06;;;;;;;13.75;4.95;;;13.20;94.50;;;;;;5058823;28;20048;-57
2021/03/27 11:49:45;;;;;;;11.68;4.45;;;12.80;92.20;;;;;;5050984;28;20028;-56
2021/03/27 11:52:29;;;;;;;9.52;3.92;;;12.90;92.80;;;;;;5048525;28;20033;-56
2021/03/27 11:55:14;;;;;;;12.85;4.90;;;13.10;92.70;;;;;;5048964;28;20079;-56
2021/03/27 11:57:55;;;;;;;11.77;4.78;;;13.30;92.70;;;;;;5068033;28;20016;-56
2021/03/27 12:00:47;;;;;;;6.88;3.10;;;13.60;92.40;;;;;;5067598;28;20035;-56
2021/03/27 12:03:22;;;;;;;8.68;3.08;;;14.00;91.90;;;;;;5054121;28;20369;-56
2021/03/27 12:05:59;;;;;;;7.45;2.90;;;14.10;91.20;;;;;;5054254;28;20040;-56
2021/03/27 12:08:59;;;;;;;6.15;2.10;;;14.20;91.50;;;;;;5050572;28;20691;-56
2021/03/27 12:11:48;;;;;;;2.63;1.40;;;14.60;90.80;;;;;;5055116;28;20028;-56
2021/03/27 12:14:30;;;;;;;3.17;1.92;;;14.00;90.60;;;;;;5056902;28;20530;-56
2021/03/27 12:17:05;;;;;;;3.55;1.80;;;14.60;90.50;;;;;;5057907;28;20029;-56
2021/03/27 12:19:37;;;;;;;3.72;1.70;;;15.00;90.30;;;;;;5068087;28;20108;-56
2021/03/27 12:22:27;;;;;;;4.85;1.50;;;14.90;87.60;;;;;;5067864;28;20036;-56
2021/03/27 12:24:55;;;;;;;3.30;1.95;;;14.80;86.30;;;;;;5068103;28;20028;-55
2021/03/27 12:27:33;;;;;;;5.55;2.42;;;15.30;87.20;;;;;;5057063;28;20148;-56
2021/03/27 12:30:40;;;;;;;7.65;3.20;;;15.10;85.70;;;;;;5048054;28;20032;-55
2021/03/27 12:33:15;;;;;;;6.60;3.20;;;15.40;84.50;;;;;;5054833;28;20391;-56
2021/03/27 12:35:47;;;;;;;8.27;3.70;;;15.60;82.80;;;;;;5048688;28;20083;-55
2021/03/27 12:38:24;;;;;;;7.85;3.72;;;15.50;82.50;;;;;;5047732;28;20407;-56
2021/03/27 12:41:03;;;;;;;5.05;2.10;;;15.00;81.80;;;;;;5055777;28;20021;-56
2021/03/27 12:43:32;;;;;;;4.43;1.60;;;15.00;81.60;;;;;;5054859;28;20115;-56
2021/03/27 12:46:06;;;;;;;3.97;1.60;;;14.90;82.00;;;;;;5058076;28;20032;-56
2021/03/27 12:48:38;;;;;;;;;;;14.60;82.50;;;;;;5048005;28;20104;-56
2021/03/27 12:51:35;;;;;;;1.92;1.00;;;14.60;81.70;;;;;;5055213;28;19908;-56
2021/03/27 12:54:21;;;;;;;3.35;1.38;;;14.90;80.90;;;;;;5048573;28;20025;-57
2021/03/27 12:57:16;;;;;;;2.22;0.90;;;14.60;78.40;;;;;;5046206;28;20051;-56
2021/03/27 12:59:48;;;;;;;2.70;0.73;;;14.80;78.50;;;;;;5045882;28;20032;-55
2021/03/27 13:02:32;;;;;;;1.65;0.68;;;14.90;76.80;;;;;;5055141;28;20037;-56
2021/03/27 13:05:10;;;;;;;2.22;0.80;;;15.10;78.20;;;;;;5046068;28;20395;-58
2021/03/27 13:08:10;;;;;;;3.22;1.27;;;15.00;75.50;;;;;;5045358;28;20120;-56
2021/03/27 13:10:49;;;;;;;4.00;1.70;;;15.00;76.50;;;;;;5064882;28;20107;-56
2021/03/27 13:13:41;;;;;;;18.55;3.65;;;15.40;77.30;;;;;;5060309;28;20021;-58
2021/03/27 13:16:25;;;;;;;18.80;4.40;;;15.30;80.20;;;;;;5055467;28;20399;-56
2021/03/27 13:19:12;;;;;;;44.88;11.90;;;16.10;76.50;;;;;;5052593;28;20108;-56
2021/03/27 13:22:01;;;;;;;25.58;6.18;;;16.00;76.30;;;;;;5045260;28;20146;-56
2021/03/27 13:24:33;;;;;;;10.73;3.08;;;16.00;73.40;;;;;;5064664;28;20058;-59
2021/03/27 13:27:13;;;;;;;5.60;1.90;;;15.50;73.30;;;;;;5050432;28;20035;-58
2021/03/27 13:29:42;;;;;;;3.88;1.10;;;15.40;73.90;;;;;;5065499;28;20112;-58
2021/03/27 13:32:42;;;;;;;2.60;1.08;;;15.60;76.00;;;;;;5047786;28;20511;-58
2021/03/27 13:35:17;;;;;;;2.20;0.75;;;15.50;74.80;;;;;;5044589;28;20033;-56
2021/03/27 13:37:48;;;;;;;1.80;0.70;;;15.80;77.30;;;;;;5056459;28;20032;-56
2021/03/27 13:40:33;;;;;;;2.28;0.55;;;16.30;72.80;;;;;;5065689;28;20067;-56
2021/03/27 13:43:17;;;;;;;;;;;16.40;73.70;;;;;;5066826;28;20036;-56
2021/03/27 13:46:10;;;;;;;1.45;0.55;;;16.70;74.70;;;;;;5063759;28;19912;-56
2021/03/27 13:48:49;;;;;;;1.00;0.60;;;16.80;72.90;;;;;;5052847;28;20075;-56
2021/03/27 13:51:23;;;;;;;1.10;0.60;;;17.10;73.20;;;;;;5051837;28;20019;-56
2021/03/27 13:53:58;;;;;;;1.20;0.75;;;17.00;73.20;;;;;;5048356;28;20055;-56
2021/03/27 13:56:24;;;;;;;3.72;1.20;;;17.20;73.20;;;;;;5061136;28;20025;-56
2021/03/27 13:58:54;;;;;;;2.88;0.90;;;16.80;71.30;;;;;;5046730;28;20037;-56
2021/03/27 14:01:37;;;;;;;4.50;1.08;;;16.30;71.30;;;;;;5055821;28;20040;-56
2021/03/27 14:04:12;;;;;;;1.65;0.95;;;16.40;71.70;;;;;;5064091;28;20032;-59
2021/03/27 14:07:03;;;;;;;1.20;0.52;;;16.00;68.80;;;;;;5058959;28;20407;-59
2021/03/27 14:09:38;;;;;;;3.50;1.08;;;16.50;70.90;;;;;;5052697;28;20083;-56